createdAt,value
2022-10-22T00:11:18.389Z,4.80
2022-10-22T00:16:18.398Z,4.70
2022-10-22T00:18:45.365Z,4.70
2022-10-22T00:21:12.661Z,4.70
2022-10-22T00:23:43.633Z,4.70
2022-10-22T00:26:10.956Z,4.70
2022-10-22T00:28:38.286Z,4.60
2022-10-22T00:31:05.599Z,4.70
2022-10-22T00:33:32.561Z,4.70
2022-10-22T00:35:59.539Z,4.70
2022-10-22T00:38:26.705Z,4.70
2022-10-22T00:40:53.665Z,4.70
2022-10-22T00:43:20.733Z,4.70
2022-10-22T00:45:47.961Z,4.70
2022-10-22T00:48:28.095Z,4.60
2022-10-22T00:50:59.868Z,4.60
2022-10-22T00:53:34.418Z,4.60
2022-10-22T00:56:01.807Z,4.60
2022-10-22T00:58:33.448Z,4.60
2022-10-22T01:01:00.770Z,4.60
2022-10-22T01:03:28.651Z,4.60
2022-10-22T01:06:05.504Z,4.60
2022-10-22T01:08:51.035Z,4.60
2022-10-22T01:11:37.956Z,4.60
2022-10-22T01:14:13.008Z,4.70
2022-10-22T01:16:58.643Z,4.70
2022-10-22T01:19:40.544Z,4.70
2022-10-22T01:22:30.730Z,4.70
2022-10-22T01:25:17.820Z,4.70
2022-10-22T01:28:08.856Z,4.70
2022-10-22T01:30:37.075Z,4.70
2022-10-22T01:33:09.049Z,4.70
2022-10-22T01:35:40.069Z,4.70
2022-10-22T01:38:08.943Z,4.70
2022-10-22T01:40:36.633Z,4.70
2022-10-22T01:43:09.050Z,4.70
2022-10-22T01:46:00.839Z,4.60
2022-10-22T01:48:33.567Z,4.60
2022-10-22T01:51:39.428Z,4.60
2022-10-22T01:54:06.260Z,4.60
2022-10-22T01:56:51.106Z,4.60
2022-10-22T02:00:03.572Z,4.50
2022-10-22T02:02:33.236Z,4.50
2022-10-22T02:05:18.287Z,4.50
2022-10-22T02:07:55.515Z,4.40
2022-10-22T02:10:23.783Z,4.40
2022-10-22T02:12:53.563Z,4.30
2022-10-22T02:15:21.998Z,4.40
2022-10-22T02:17:50.828Z,4.40
2022-10-22T02:20:26.625Z,4.40
2022-10-22T02:22:53.830Z,4.30
2022-10-22T02:25:24.557Z,4.20
2022-10-22T02:28:01.165Z,4.20
2022-10-22T02:30:28.267Z,4.10
2022-10-22T02:33:22.978Z,4.10
2022-10-22T02:35:52.257Z,4.00
2022-10-22T02:38:20.576Z,4.00
2022-10-22T02:40:47.681Z,4.00
2022-10-22T02:43:14.784Z,4.00
2022-10-22T02:45:41.786Z,4.00
2022-10-22T02:48:08.920Z,3.90
2022-10-22T02:50:36.150Z,3.90
2022-10-22T02:53:03.635Z,3.90
2022-10-22T02:55:30.659Z,3.90
2022-10-22T02:57:57.864Z,3.80
2022-10-22T03:00:24.791Z,3.70
2022-10-22T03:02:51.744Z,3.60
2022-10-22T03:05:18.814Z,3.60
2022-10-22T03:07:45.867Z,3.50
2022-10-22T03:10:12.904Z,3.50
2022-10-22T03:12:39.888Z,3.50
2022-10-22T03:15:07.155Z,3.50
2022-10-22T03:17:34.133Z,3.40
2022-10-22T03:20:01.121Z,3.40
2022-10-22T03:22:30.871Z,3.40
2022-10-22T03:25:01.677Z,3.30
2022-10-22T03:27:30.388Z,3.30
2022-10-22T03:29:58.218Z,3.30
2022-10-22T03:32:25.584Z,3.30
2022-10-22T03:34:52.682Z,3.30
2022-10-22T03:37:20.300Z,3.20
2022-10-22T03:39:47.621Z,3.20
2022-10-22T03:42:14.683Z,3.20
2022-10-22T03:44:42.108Z,3.20
2022-10-22T03:47:09.531Z,3.20
2022-10-22T03:49:36.771Z,3.10
2022-10-22T03:52:15.140Z,3.10
2022-10-22T03:54:42.678Z,3.10
2022-10-22T03:57:09.880Z,3.10
2022-10-22T03:59:39.117Z,3.20
2022-10-22T04:02:06.319Z,3.20
2022-10-22T04:04:33.821Z,3.20
2022-10-22T04:07:00.821Z,3.10
2022-10-22T04:09:27.933Z,3.00
2022-10-22T04:11:54.830Z,3.00
2022-10-22T04:14:21.849Z,3.00
2022-10-22T04:16:48.757Z,3.00
2022-10-22T04:19:15.753Z,3.00
2022-10-22T04:21:42.928Z,3.00
2022-10-22T04:24:10.006Z,2.90
2022-10-22T04:26:36.941Z,2.90
2022-10-22T04:29:04.076Z,2.90
2022-10-22T04:31:30.990Z,2.80
2022-10-22T04:34:00.411Z,2.80
2022-10-22T04:36:29.325Z,2.70
2022-10-22T04:38:58.462Z,2.70
2022-10-22T04:41:32.129Z,2.70
2022-10-22T04:43:59.549Z,2.70
2022-10-22T04:46:28.955Z,2.70
2022-10-22T04:48:55.998Z,2.60
2022-10-22T04:51:25.247Z,2.60
2022-10-22T04:53:52.733Z,2.60
2022-10-22T04:56:23.148Z,2.60
2022-10-22T04:58:53.021Z,2.70
2022-10-22T05:01:22.925Z,2.60
2022-10-22T05:03:52.233Z,2.60
2022-10-22T05:06:21.014Z,2.50
2022-10-22T05:08:48.567Z,2.40
2022-10-22T05:11:18.614Z,2.30
2022-10-22T05:13:45.865Z,2.30
2022-10-22T05:16:13.386Z,2.30
2022-10-22T05:18:42.903Z,2.20
2022-10-22T05:21:12.405Z,2.20
2022-10-22T05:23:39.699Z,2.20
2022-10-22T05:26:08.787Z,2.20
2022-10-22T05:28:36.561Z,2.30
2022-10-22T05:31:04.784Z,2.30
2022-10-22T05:33:36.471Z,2.30
2022-10-22T05:36:08.705Z,2.30
2022-10-22T05:38:35.835Z,2.40
2022-10-22T05:41:16.096Z,2.30
2022-10-22T05:43:43.432Z,2.30
2022-10-22T05:46:22.035Z,2.40
2022-10-22T05:48:53.350Z,2.40
2022-10-22T05:51:20.720Z,2.40
2022-10-22T05:53:52.651Z,2.40
2022-10-22T05:56:19.585Z,2.40
2022-10-22T05:58:46.496Z,2.40
2022-10-22T06:01:22.456Z,2.50
2022-10-22T06:03:50.101Z,2.60
2022-10-22T06:06:39.482Z,2.80
2022-10-22T06:09:12.594Z,3.20
2022-10-22T06:11:40.634Z,3.50
2022-10-22T06:14:07.604Z,3.90
2022-10-22T06:16:36.005Z,4.10
2022-10-22T06:19:03.644Z,4.50
2022-10-22T06:21:31.757Z,4.90
2022-10-22T06:24:00.636Z,5.20
2022-10-22T06:26:27.616Z,5.50
2022-10-22T06:28:56.279Z,5.80
2022-10-22T06:31:24.007Z,6.10
2022-10-22T06:33:50.899Z,6.40
2022-10-22T06:36:22.318Z,6.70
2022-10-22T06:38:52.909Z,6.80
2022-10-22T06:41:21.332Z,6.80
2022-10-22T06:43:50.244Z,6.80
2022-10-22T06:46:20.223Z,6.90
2022-10-22T06:48:55.924Z,7.10
2022-10-22T06:51:23.360Z,7.20
2022-10-22T06:53:50.337Z,7.30
2022-10-22T06:56:20.781Z,7.40
2022-10-22T06:58:52.108Z,7.50
2022-10-22T07:01:23.035Z,7.60
2022-10-22T07:03:50.919Z,7.50
2022-10-22T07:06:18.248Z,7.60
2022-10-22T07:08:45.334Z,7.80
2022-10-22T07:11:21.073Z,7.90
2022-10-22T07:13:48.964Z,8.00
2022-10-22T07:16:16.656Z,8.20
2022-10-22T07:18:43.966Z,8.40
2022-10-22T07:21:12.301Z,8.60
2022-10-22T07:23:39.411Z,8.80
2022-10-22T07:26:08.606Z,9.00
2022-10-22T07:28:38.119Z,9.10
2022-10-22T07:31:05.077Z,9.20
2022-10-22T07:33:32.051Z,8.90
2022-10-22T07:36:00.774Z,8.70
2022-10-22T07:38:29.162Z,8.60
2022-10-22T07:40:56.297Z,8.40
2022-10-22T07:43:23.654Z,8.10
2022-10-22T07:45:50.641Z,8.00
2022-10-22T07:48:18.043Z,8.00
2022-10-22T07:53:16.981Z,7.80
2022-10-22T07:55:43.951Z,7.80
2022-10-22T07:58:10.887Z,7.90
2022-10-22T08:00:37.778Z,8.00
2022-10-22T08:03:04.850Z,8.00
2022-10-22T08:05:32.039Z,8.10
2022-10-22T11:12:46.122Z,11.50
2022-10-22T11:15:29.385Z,11.60
2022-10-22T11:18:46.468Z,11.70
2022-10-22T11:21:27.496Z,11.80
2022-10-22T11:24:13.161Z,11.80
2022-10-22T11:26:50.305Z,11.80
2022-10-22T11:29:28.295Z,11.70
2022-10-22T11:31:58.615Z,11.60
2022-10-22T11:34:33.759Z,11.60
2022-10-22T11:37:03.055Z,11.50
2022-10-22T11:39:43.882Z,11.30
2022-10-22T11:42:18.948Z,11.10
2022-10-22T11:45:06.807Z,11.10
2022-10-22T11:47:42.148Z,11.10
2022-10-22T11:50:25.574Z,11.10
2022-10-22T11:53:12.828Z,11.20
2022-10-22T11:55:52.805Z,11.20
2022-10-22T11:58:29.066Z,11.10
2022-10-22T12:01:03.202Z,11.10
2022-10-22T12:03:33.200Z,11.20
2022-10-22T12:06:16.434Z,11.20
2022-10-22T12:08:47.341Z,11.30
2022-10-22T12:11:21.702Z,11.40
2022-10-22T12:14:03.629Z,11.40
2022-10-22T12:16:57.500Z,11.40
2022-10-22T12:19:45.028Z,11.50
2022-10-22T12:22:19.577Z,11.60
2022-10-22T12:24:49.628Z,11.70
2022-10-22T12:27:22.618Z,11.80
2022-10-22T12:29:54.632Z,11.70
2022-10-22T12:32:21.607Z,11.70
2022-10-22T12:34:52.924Z,11.50
2022-10-22T12:37:20.108Z,11.40
2022-10-22T12:39:47.273Z,11.40
2022-10-22T12:42:16.392Z,11.30
2022-10-22T12:44:46.455Z,11.30
2022-10-22T12:47:18.188Z,11.30
2022-10-22T12:49:49.913Z,11.20
2022-10-22T12:52:21.475Z,11.30
2022-10-22T12:54:52.587Z,11.30
2022-10-22T12:57:21.299Z,11.30
2022-10-22T12:59:51.346Z,11.30
2022-10-22T13:02:25.485Z,11.30
2022-10-22T13:05:21.686Z,11.20
2022-10-22T13:08:22.570Z,11.20
2022-10-22T13:10:52.507Z,11.20
2022-10-22T13:13:32.529Z,11.20
2022-10-22T13:16:16.053Z,11.20
2022-10-22T13:18:44.082Z,11.10
2022-10-22T13:21:41.812Z,11.00
2022-10-22T13:24:23.654Z,10.90
2022-10-22T13:26:53.376Z,10.80
2022-10-22T13:29:22.686Z,10.80
2022-10-22T13:31:52.664Z,10.80
2022-10-22T13:34:24.584Z,10.70
2022-10-22T13:36:51.904Z,10.60
2022-10-22T13:39:23.800Z,10.50
2022-10-22T13:41:51.299Z,10.50
2022-10-22T13:44:19.821Z,10.40
2022-10-22T13:46:48.552Z,10.40
2022-10-22T13:49:23.398Z,10.30
2022-10-22T13:51:51.442Z,10.20
2022-10-22T13:54:22.697Z,10.20
2022-10-22T13:56:49.802Z,10.10
2022-10-22T13:59:19.715Z,10.00
2022-10-22T14:01:49.894Z,9.90
2022-10-22T14:04:16.791Z,9.80
2022-10-22T14:06:43.948Z,9.70
2022-10-22T14:09:15.271Z,9.60
2022-10-22T14:11:43.193Z,9.50
2022-10-22T14:14:14.208Z,9.50
2022-10-22T14:16:41.536Z,9.40
2022-10-22T14:19:14.523Z,9.30
2022-10-22T14:21:41.499Z,9.20
2022-10-22T14:24:13.070Z,9.10
2022-10-22T14:26:40.852Z,9.00
2022-10-22T14:29:10.333Z,8.90
2022-10-22T14:31:42.746Z,8.80
2022-10-22T14:34:15.698Z,8.70
2022-10-22T14:36:45.591Z,8.60
2022-10-22T14:39:13.586Z,8.50
2022-10-22T14:41:41.216Z,8.40
2022-10-22T14:44:14.521Z,8.30
2022-10-22T14:46:44.210Z,8.20
2022-10-22T14:49:11.525Z,8.10
2022-10-22T14:51:38.947Z,7.90
2022-10-22T14:54:05.868Z,7.80
2022-10-22T14:56:32.805Z,7.70
2022-10-22T14:58:59.808Z,7.60
2022-10-22T15:01:26.757Z,7.60
2022-10-22T15:03:53.668Z,7.50
2022-10-22T15:06:20.560Z,7.30
2022-10-22T15:08:47.536Z,7.20
2022-10-22T15:11:14.550Z,7.10
2022-10-22T15:13:42.272Z,7.00
2022-10-22T15:16:11.339Z,6.90
2022-10-22T15:18:38.545Z,6.80
2022-10-22T15:21:18.175Z,6.60
2022-10-22T15:23:45.377Z,6.50
2022-10-22T15:26:13.191Z,6.40
2022-10-22T15:28:40.921Z,6.30
2022-10-22T15:31:08.352Z,6.20
2022-10-22T15:33:35.359Z,6.20
